sensor_id;sensor_type;location;lat;lon;timestamp;P1;durP1;ratioP1;P2;durP2;ratioP2
62523;SDS011;53689;56.878;60.672;2022-08-21T00:00:26;13.30;;;11.93;;
62523;SDS011;53689;56.878;60.672;2022-08-21T00:02:55;12.77;;;11.48;;
62523;SDS011;53689;56.878;60.672;2022-08-21T00:05:25;14.00;;;11.52;;
62523;SDS011;53689;56.878;60.672;2022-08-21T00:07:54;13.30;;;11.90;;
62523;SDS011;53689;56.878;60.672;2022-08-21T00:10:22;12.50;;;11.07;;
62523;SDS011;53689;56.878;60.672;2022-08-21T00:12:50;13.15;;;11.35;;
62523;SDS011;53689;56.878;60.672;2022-08-21T00:15:19;12.82;;;11.30;;
62523;SDS011;53689;56.878;60.672;2022-08-21T00:17:49;13.75;;;12.20;;
62523;SDS011;53689;56.878;60.672;2022-08-21T00:20:17;13.35;;;12.02;;
62523;SDS011;53689;56.878;60.672;2022-08-21T00:22:46;13.32;;;11.90;;
62523;SDS011;53689;56.878;60.672;2022-08-21T00:25:13;12.95;;;11.65;;
62523;SDS011;53689;56.878;60.672;2022-08-21T00:27:46;13.02;;;11.63;;
62523;SDS011;53689;56.878;60.672;2022-08-21T00:30:15;13.05;;;11.60;;
62523;SDS011;53689;56.878;60.672;2022-08-21T00:32:49;14.43;;;12.75;;
62523;SDS011;53689;56.878;60.672;2022-08-21T00:35:17;13.95;;;12.30;;
62523;SDS011;53689;56.878;60.672;2022-08-21T00:37:48;13.98;;;11.88;;
62523;SDS011;53689;56.878;60.672;2022-08-21T00:40:17;13.90;;;12.32;;
62523;SDS011;53689;56.878;60.672;2022-08-21T00:42:47;17.95;;;12.63;;
62523;SDS011;53689;56.878;60.672;2022-08-21T00:45:20;16.20;;;12.93;;
62523;SDS011;53689;56.878;60.672;2022-08-21T00:47:48;14.95;;;12.38;;
62523;SDS011;53689;56.878;60.672;2022-08-21T00:50:16;15.77;;;12.63;;
62523;SDS011;53689;56.878;60.672;2022-08-21T00:52:49;14.77;;;11.68;;
62523;SDS011;53689;56.878;60.672;2022-08-21T00:55:18;17.92;;;12.88;;
62523;SDS011;53689;56.878;60.672;2022-08-21T00:57:49;18.92;;;14.48;;
62523;SDS011;53689;56.878;60.672;2022-08-21T01:02:47;15.23;;;11.52;;
62523;SDS011;53689;56.878;60.672;2022-08-21T01:05:15;14.13;;;11.80;;
62523;SDS011;53689;56.878;60.672;2022-08-21T01:07:42;15.23;;;11.63;;
62523;SDS011;53689;56.878;60.672;2022-08-21T01:10:12;13.07;;;11.23;;
62523;SDS011;53689;56.878;60.672;2022-08-21T01:15:18;16.70;;;11.70;;
62523;SDS011;53689;56.878;60.672;2022-08-21T01:17:47;14.82;;;11.38;;
62523;SDS011;53689;56.878;60.672;2022-08-21T01:20:16;14.25;;;12.70;;
62523;SDS011;53689;56.878;60.672;2022-08-21T01:22:45;17.15;;;12.13;;
62523;SDS011;53689;56.878;60.672;2022-08-21T01:25:14;15.18;;;11.82;;
62523;SDS011;53689;56.878;60.672;2022-08-21T01:30:10;14.30;;;10.80;;
62523;SDS011;53689;56.878;60.672;2022-08-21T01:32:39;13.85;;;11.43;;
62523;SDS011;53689;56.878;60.672;2022-08-21T01:35:07;13.63;;;11.18;;
62523;SDS011;53689;56.878;60.672;2022-08-21T01:37:35;15.35;;;11.05;;
62523;SDS011;53689;56.878;60.672;2022-08-21T01:40:05;13.55;;;11.30;;
62523;SDS011;53689;56.878;60.672;2022-08-21T01:42:33;15.00;;;11.65;;
62523;SDS011;53689;56.878;60.672;2022-08-21T01:45:02;13.45;;;12.02;;
62523;SDS011;53689;56.878;60.672;2022-08-21T01:47:29;15.18;;;12.13;;
62523;SDS011;53689;56.878;60.672;2022-08-21T01:49:57;13.50;;;12.10;;
62523;SDS011;53689;56.878;60.672;2022-08-21T01:52:24;14.13;;;11.45;;
62523;SDS011;53689;56.878;60.672;2022-08-21T01:54:52;13.45;;;11.15;;
62523;SDS011;53689;56.878;60.672;2022-08-21T01:57:22;14.32;;;11.05;;
62523;SDS011;53689;56.878;60.672;2022-08-21T01:59:52;13.63;;;11.18;;
62523;SDS011;53689;56.878;60.672;2022-08-21T02:02:19;13.75;;;11.98;;
62523;SDS011;53689;56.878;60.672;2022-08-21T02:04:47;13.10;;;11.07;;
62523;SDS011;53689;56.878;60.672;2022-08-21T02:07:14;15.25;;;11.30;;
62523;SDS011;53689;56.878;60.672;2022-08-21T02:09:42;12.52;;;10.93;;
62523;SDS011;53689;56.878;60.672;2022-08-21T02:12:10;12.02;;;10.82;;
62523;SDS011;53689;56.878;60.672;2022-08-21T02:14:39;13.45;;;10.40;;
62523;SDS011;53689;56.878;60.672;2022-08-21T02:17:06;15.23;;;10.57;;
62523;SDS011;53689;56.878;60.672;2022-08-21T02:19:35;13.23;;;10.40;;
62523;SDS011;53689;56.878;60.672;2022-08-21T02:22:06;12.77;;;11.07;;
62523;SDS011;53689;56.878;60.672;2022-08-21T02:24:35;14.00;;;11.07;;
62523;SDS011;53689;56.878;60.672;2022-08-21T02:27:19;12.77;;;10.27;;
62523;SDS011;53689;56.878;60.672;2022-08-21T02:29:54;12.88;;;10.52;;
62523;SDS011;53689;56.878;60.672;2022-08-21T02:32:23;13.63;;;10.57;;
62523;SDS011;53689;56.878;60.672;2022-08-21T02:34:51;12.63;;;10.43;;
62523;SDS011;53689;56.878;60.672;2022-08-21T02:37:18;13.30;;;10.35;;
62523;SDS011;53689;56.878;60.672;2022-08-21T02:39:46;14.48;;;10.43;;
62523;SDS011;53689;56.878;60.672;2022-08-21T02:42:13;12.30;;;9.70;;
62523;SDS011;53689;56.878;60.672;2022-08-21T02:44:41;12.00;;;10.05;;
62523;SDS011;53689;56.878;60.672;2022-08-21T02:47:10;11.18;;;9.38;;
62523;SDS011;53689;56.878;60.672;2022-08-21T02:49:37;11.63;;;9.23;;
62523;SDS011;53689;56.878;60.672;2022-08-21T02:52:04;10.52;;;9.38;;
62523;SDS011;53689;56.878;60.672;2022-08-21T02:54:32;11.38;;;10.00;;
62523;SDS011;53689;56.878;60.672;2022-08-21T02:56:59;11.10;;;8.70;;
62523;SDS011;53689;56.878;60.672;2022-08-21T02:59:27;12.73;;;8.75;;
62523;SDS011;53689;56.878;60.672;2022-08-21T03:01:55;11.20;;;9.20;;
62523;SDS011;53689;56.878;60.672;2022-08-21T03:04:24;9.45;;;8.40;;
62523;SDS011;53689;56.878;60.672;2022-08-21T03:06:51;10.70;;;8.40;;
62523;SDS011;53689;56.878;60.672;2022-08-21T03:09:18;9.15;;;8.00;;
62523;SDS011;53689;56.878;60.672;2022-08-21T03:11:46;9.75;;;8.25;;
62523;SDS011;53689;56.878;60.672;2022-08-21T03:14:13;9.80;;;7.70;;
62523;SDS011;53689;56.878;60.672;2022-08-21T03:16:41;9.73;;;7.65;;
62523;SDS011;53689;56.878;60.672;2022-08-21T03:19:08;8.25;;;7.20;;
62523;SDS011;53689;56.878;60.672;2022-08-21T03:21:37;9.00;;;6.45;;
62523;SDS011;53689;56.878;60.672;2022-08-21T03:24:05;8.37;;;6.30;;
62523;SDS011;53689;56.878;60.672;2022-08-21T03:26:32;7.60;;;6.78;;
62523;SDS011;53689;56.878;60.672;2022-08-21T03:29:00;8.30;;;6.28;;
62523;SDS011;53689;56.878;60.672;2022-08-21T03:31:27;8.63;;;5.90;;
62523;SDS011;53689;56.878;60.672;2022-08-21T03:33:55;11.02;;;6.05;;
62523;SDS011;53689;56.878;60.672;2022-08-21T03:36:22;8.77;;;6.00;;
62523;SDS011;53689;56.878;60.672;2022-08-21T03:38:51;7.60;;;5.68;;
62523;SDS011;53689;56.878;60.672;2022-08-21T03:41:19;7.60;;;5.70;;
62523;SDS011;53689;56.878;60.672;2022-08-21T03:43:46;6.88;;;5.50;;
62523;SDS011;53689;56.878;60.672;2022-08-21T03:46:14;7.63;;;5.82;;
62523;SDS011;53689;56.878;60.672;2022-08-21T03:48:41;7.95;;;5.93;;
62523;SDS011;53689;56.878;60.672;2022-08-21T03:51:08;9.13;;;5.55;;
62523;SDS011;53689;56.878;60.672;2022-08-21T03:53:36;7.55;;;5.95;;
62523;SDS011;53689;56.878;60.672;2022-08-21T03:56:05;8.02;;;6.00;;
62523;SDS011;53689;56.878;60.672;2022-08-21T03:58:33;8.32;;;5.90;;
62523;SDS011;53689;56.878;60.672;2022-08-21T04:01:02;9.05;;;6.05;;
62523;SDS011;53689;56.878;60.672;2022-08-21T04:03:30;10.35;;;6.60;;
62523;SDS011;53689;56.878;60.672;2022-08-21T04:05:58;11.93;;;7.00;;
62523;SDS011;53689;56.878;60.672;2022-08-21T04:08:25;11.48;;;7.07;;
62523;SDS011;53689;56.878;60.672;2022-08-21T04:10:54;10.88;;;6.90;;
62523;SDS011;53689;56.878;60.672;2022-08-21T04:13:25;8.48;;;6.65;;
62523;SDS011;53689;56.878;60.672;2022-08-21T04:15:52;8.23;;;6.25;;
62523;SDS011;53689;56.878;60.672;2022-08-21T04:18:20;8.15;;;5.75;;
62523;SDS011;53689;56.878;60.672;2022-08-21T04:20:47;6.65;;;5.22;;
62523;SDS011;53689;56.878;60.672;2022-08-21T04:23:18;8.73;;;5.70;;
62523;SDS011;53689;56.878;60.672;2022-08-21T04:25:50;7.28;;;5.63;;
62523;SDS011;53689;56.878;60.672;2022-08-21T04:28:18;8.20;;;5.70;;
62523;SDS011;53689;56.878;60.672;2022-08-21T04:30:47;10.15;;;6.43;;
62523;SDS011;53689;56.878;60.672;2022-08-21T04:33:15;12.20;;;6.75;;
62523;SDS011;53689;56.878;60.672;2022-08-21T04:35:43;9.95;;;6.70;;
62523;SDS011;53689;56.878;60.672;2022-08-21T04:38:10;9.57;;;6.03;;
62523;SDS011;53689;56.878;60.672;2022-08-21T04:40:38;9.30;;;6.28;;
62523;SDS011;53689;56.878;60.672;2022-08-21T04:43:06;12.02;;;6.93;;
62523;SDS011;53689;56.878;60.672;2022-08-21T04:45:36;11.90;;;6.88;;
62523;SDS011;53689;56.878;60.672;2022-08-21T04:48:08;11.70;;;6.50;;
62523;SDS011;53689;56.878;60.672;2022-08-21T04:50:41;10.52;;;6.00;;
62523;SDS011;53689;56.878;60.672;2022-08-21T04:53:12;7.93;;;5.40;;
62523;SDS011;53689;56.878;60.672;2022-08-21T04:55:42;8.30;;;5.10;;
62523;SDS011;53689;56.878;60.672;2022-08-21T04:58:11;8.82;;;5.65;;
62523;SDS011;53689;56.878;60.672;2022-08-21T05:00:41;10.50;;;6.00;;
62523;SDS011;53689;56.878;60.672;2022-08-21T05:03:10;10.95;;;6.30;;
62523;SDS011;53689;56.878;60.672;2022-08-21T05:05:39;7.03;;;4.50;;
62523;SDS011;53689;56.878;60.672;2022-08-21T05:08:07;7.40;;;4.63;;
62523;SDS011;53689;56.878;60.672;2022-08-21T05:10:39;7.55;;;4.50;;
62523;SDS011;53689;56.878;60.672;2022-08-21T05:13:07;7.85;;;4.85;;
62523;SDS011;53689;56.878;60.672;2022-08-21T05:15:34;6.93;;;4.28;;
62523;SDS011;53689;56.878;60.672;2022-08-21T05:18:02;7.22;;;4.68;;
62523;SDS011;53689;56.878;60.672;2022-08-21T05:20:31;8.65;;;4.53;;
62523;SDS011;53689;56.878;60.672;2022-08-21T05:22:58;7.55;;;4.47;;
62523;SDS011;53689;56.878;60.672;2022-08-21T05:25:26;9.32;;;4.18;;
62523;SDS011;53689;56.878;60.672;2022-08-21T05:27:55;6.95;;;3.63;;
62523;SDS011;53689;56.878;60.672;2022-08-21T05:30:26;6.90;;;4.43;;
62523;SDS011;53689;56.878;60.672;2022-08-21T05:32:55;7.57;;;4.40;;
62523;SDS011;53689;56.878;60.672;2022-08-21T05:35:24;8.25;;;3.88;;
62523;SDS011;53689;56.878;60.672;2022-08-21T05:37:53;6.05;;;3.40;;
62523;SDS011;53689;56.878;60.672;2022-08-21T05:40:21;6.43;;;3.95;;
62523;SDS011;53689;56.878;60.672;2022-08-21T05:42:49;6.80;;;4.07;;
62523;SDS011;53689;56.878;60.672;2022-08-21T05:45:20;6.43;;;4.20;;
62523;SDS011;53689;56.878;60.672;2022-08-21T05:48:08;7.10;;;3.72;;
62523;SDS011;53689;56.878;60.672;2022-08-21T05:50:36;7.60;;;4.40;;
62523;SDS011;53689;56.878;60.672;2022-08-21T05:53:05;7.60;;;4.32;;
62523;SDS011;53689;56.878;60.672;2022-08-21T05:55:35;7.78;;;4.53;;
62523;SDS011;53689;56.878;60.672;2022-08-21T05:58:08;9.20;;;4.80;;
62523;SDS011;53689;56.878;60.672;2022-08-21T06:00:35;8.20;;;4.57;;
62523;SDS011;53689;56.878;60.672;2022-08-21T06:03:03;7.55;;;4.35;;
62523;SDS011;53689;56.878;60.672;2022-08-21T06:05:30;8.10;;;4.50;;
62523;SDS011;53689;56.878;60.672;2022-08-21T06:08:03;7.65;;;4.28;;
62523;SDS011;53689;56.878;60.672;2022-08-21T06:10:32;9.82;;;4.68;;
62523;SDS011;53689;56.878;60.672;2022-08-21T06:13:00;7.47;;;4.57;;
62523;SDS011;53689;56.878;60.672;2022-08-21T06:15:27;7.38;;;4.40;;
62523;SDS011;53689;56.878;60.672;2022-08-21T06:17:54;7.95;;;4.10;;
62523;SDS011;53689;56.878;60.672;2022-08-21T06:20:22;8.55;;;5.05;;
62523;SDS011;53689;56.878;60.672;2022-08-21T06:22:50;8.70;;;4.70;;
62523;SDS011;53689;56.878;60.672;2022-08-21T06:25:18;8.27;;;4.45;;
62523;SDS011;53689;56.878;60.672;2022-08-21T06:27:47;10.02;;;4.43;;
62523;SDS011;53689;56.878;60.672;2022-08-21T06:30:14;7.28;;;4.28;;
62523;SDS011;53689;56.878;60.672;2022-08-21T06:32:41;6.97;;;4.53;;
62523;SDS011;53689;56.878;60.672;2022-08-21T06:35:09;7.85;;;4.65;;
62523;SDS011;53689;56.878;60.672;2022-08-21T06:37:37;6.28;;;4.15;;
62523;SDS011;53689;56.878;60.672;2022-08-21T06:40:04;6.82;;;4.45;;
62523;SDS011;53689;56.878;60.672;2022-08-21T06:42:38;9.57;;;4.75;;
62523;SDS011;53689;56.878;60.672;2022-08-21T06:45:10;7.47;;;4.63;;
62523;SDS011;53689;56.878;60.672;2022-08-21T06:47:37;7.63;;;4.63;;
62523;SDS011;53689;56.878;60.672;2022-08-21T06:50:05;8.43;;;4.97;;
62523;SDS011;53689;56.878;60.672;2022-08-21T06:52:34;9.88;;;4.90;;
62523;SDS011;53689;56.878;60.672;2022-08-21T06:55:02;10.80;;;5.05;;
62523;SDS011;53689;56.878;60.672;2022-08-21T06:57:31;8.95;;;5.03;;
62523;SDS011;53689;56.878;60.672;2022-08-21T06:59:58;7.63;;;4.60;;
62523;SDS011;53689;56.878;60.672;2022-08-21T07:02:27;8.77;;;5.03;;
62523;SDS011;53689;56.878;60.672;2022-08-21T07:04:54;8.27;;;4.77;;
62523;SDS011;53689;56.878;60.672;2022-08-21T07:07:22;7.45;;;4.70;;
62523;SDS011;53689;56.878;60.672;2022-08-21T07:09:49;7.85;;;4.93;;
62523;SDS011;53689;56.878;60.672;2022-08-21T07:12:17;8.43;;;4.97;;
62523;SDS011;53689;56.878;60.672;2022-08-21T07:14:45;9.10;;;5.13;;
62523;SDS011;53689;56.878;60.672;2022-08-21T07:17:12;7.38;;;4.75;;
62523;SDS011;53689;56.878;60.672;2022-08-21T07:19:41;5.65;;;4.07;;
62523;SDS011;53689;56.878;60.672;2022-08-21T07:22:08;6.40;;;4.90;;
62523;SDS011;53689;56.878;60.672;2022-08-21T07:24:36;7.25;;;4.63;;
62523;SDS011;53689;56.878;60.672;2022-08-21T07:27:03;8.13;;;4.90;;
62523;SDS011;53689;56.878;60.672;2022-08-21T07:29:35;7.53;;;4.65;;
62523;SDS011;53689;56.878;60.672;2022-08-21T07:32:03;8.05;;;4.70;;
62523;SDS011;53689;56.878;60.672;2022-08-21T07:34:31;9.23;;;4.95;;
62523;SDS011;53689;56.878;60.672;2022-08-21T07:37:00;8.13;;;5.13;;
62523;SDS011;53689;56.878;60.672;2022-08-21T07:39:35;8.50;;;5.28;;
62523;SDS011;53689;56.878;60.672;2022-08-21T07:42:03;7.82;;;5.30;;
62523;SDS011;53689;56.878;60.672;2022-08-21T07:44:34;8.52;;;5.20;;
62523;SDS011;53689;56.878;60.672;2022-08-21T07:47:01;12.85;;;7.57;;
62523;SDS011;53689;56.878;60.672;2022-08-21T07:49:29;9.95;;;6.32;;
62523;SDS011;53689;56.878;60.672;2022-08-21T07:51:56;10.25;;;6.50;;
62523;SDS011;53689;56.878;60.672;2022-08-21T07:54:26;8.63;;;5.50;;
62523;SDS011;53689;56.878;60.672;2022-08-21T07:56:59;8.50;;;5.55;;
62523;SDS011;53689;56.878;60.672;2022-08-21T07:59:27;10.85;;;5.72;;
62523;SDS011;53689;56.878;60.672;2022-08-21T08:01:55;11.88;;;6.55;;
62523;SDS011;53689;56.878;60.672;2022-08-21T08:04:23;12.73;;;6.03;;
62523;SDS011;53689;56.878;60.672;2022-08-21T08:06:52;10.07;;;6.38;;
62523;SDS011;53689;56.878;60.672;2022-08-21T08:09:19;10.65;;;6.40;;
62523;SDS011;53689;56.878;60.672;2022-08-21T08:11:48;9.65;;;6.03;;
62523;SDS011;53689;56.878;60.672;2022-08-21T08:14:16;9.93;;;6.07;;
62523;SDS011;53689;56.878;60.672;2022-08-21T08:16:43;12.20;;;6.18;;
62523;SDS011;53689;56.878;60.672;2022-08-21T08:19:11;10.48;;;6.20;;
62523;SDS011;53689;56.878;60.672;2022-08-21T08:21:38;12.93;;;6.32;;
62523;SDS011;53689;56.878;60.672;2022-08-21T08:24:06;10.60;;;6.60;;
62523;SDS011;53689;56.878;60.672;2022-08-21T08:26:45;11.25;;;6.60;;
62523;SDS011;53689;56.878;60.672;2022-08-21T08:29:21;9.35;;;6.20;;
62523;SDS011;53689;56.878;60.672;2022-08-21T08:31:48;9.65;;;6.00;;
62523;SDS011;53689;56.878;60.672;2022-08-21T08:34:17;10.85;;;6.60;;
62523;SDS011;53689;56.878;60.672;2022-08-21T08:36:51;9.13;;;6.57;;
62523;SDS011;53689;56.878;60.672;2022-08-21T08:39:19;9.93;;;6.22;;
62523;SDS011;53689;56.878;60.672;2022-08-21T08:41:57;12.02;;;6.65;;
62523;SDS011;53689;56.878;60.672;2022-08-21T08:44:52;9.43;;;6.22;;
62523;SDS011;53689;56.878;60.672;2022-08-21T08:47:24;17.80;;;7.38;;
62523;SDS011;53689;56.878;60.672;2022-08-21T08:49:55;8.27;;;6.20;;
62523;SDS011;53689;56.878;60.672;2022-08-21T08:52:28;12.35;;;6.43;;
62523;SDS011;53689;56.878;60.672;2022-08-21T08:54:58;8.63;;;7.13;;
62523;SDS011;53689;56.878;60.672;2022-08-21T08:57:31;10.30;;;6.88;;
62523;SDS011;53689;56.878;60.672;2022-08-21T09:00:04;14.32;;;6.60;;
62523;SDS011;53689;56.878;60.672;2022-08-21T09:02:34;10.43;;;6.60;;
62523;SDS011;53689;56.878;60.672;2022-08-21T09:05:02;8.68;;;7.25;;
62523;SDS011;53689;56.878;60.672;2022-08-21T09:07:34;10.75;;;6.82;;
62523;SDS011;53689;56.878;60.672;2022-08-21T09:10:11;9.38;;;6.93;;
62523;SDS011;53689;56.878;60.672;2022-08-21T09:12:50;10.10;;;7.18;;
62523;SDS011;53689;56.878;60.672;2022-08-21T09:15:25;10.30;;;7.43;;
62523;SDS011;53689;56.878;60.672;2022-08-21T09:18:16;10.05;;;7.68;;
62523;SDS011;53689;56.878;60.672;2022-08-21T09:20:57;9.38;;;7.35;;
62523;SDS011;53689;56.878;60.672;2022-08-21T09:26:08;9.35;;;7.45;;
62523;SDS011;53689;56.878;60.672;2022-08-21T09:28:39;10.10;;;6.75;;
62523;SDS011;53689;56.878;60.672;2022-08-21T09:31:15;9.05;;;7.28;;
62523;SDS011;53689;56.878;60.672;2022-08-21T09:33:48;9.38;;;7.22;;
62523;SDS011;53689;56.878;60.672;2022-08-21T09:36:22;10.23;;;6.95;;
62523;SDS011;53689;56.878;60.672;2022-08-21T09:38:52;11.77;;;6.97;;
62523;SDS011;53689;56.878;60.672;2022-08-21T09:41:25;9.70;;;7.00;;
62523;SDS011;53689;56.878;60.672;2022-08-21T09:43:55;8.63;;;6.32;;
62523;SDS011;53689;56.878;60.672;2022-08-21T09:46:25;8.40;;;6.90;;
62523;SDS011;53689;56.878;60.672;2022-08-21T09:48:54;10.38;;;7.50;;
62523;SDS011;53689;56.878;60.672;2022-08-21T09:51:26;12.73;;;6.72;;
62523;SDS011;53689;56.878;60.672;2022-08-21T09:53:55;8.65;;;6.85;;
62523;SDS011;53689;56.878;60.672;2022-08-21T09:56:28;9.93;;;6.78;;
62523;SDS011;53689;56.878;60.672;2022-08-21T09:58:59;9.23;;;6.82;;
62523;SDS011;53689;56.878;60.672;2022-08-21T10:01:28;10.80;;;6.93;;
62523;SDS011;53689;56.878;60.672;2022-08-21T10:04:02;11.32;;;8.10;;
62523;SDS011;53689;56.878;60.672;2022-08-21T10:06:31;9.98;;;7.35;;
62523;SDS011;53689;56.878;60.672;2022-08-21T10:09:04;9.38;;;6.90;;
62523;SDS011;53689;56.878;60.672;2022-08-21T10:11:33;10.23;;;7.20;;
62523;SDS011;53689;56.878;60.672;2022-08-21T10:14:03;9.43;;;6.93;;
62523;SDS011;53689;56.878;60.672;2022-08-21T10:16:43;9.63;;;7.45;;
62523;SDS011;53689;56.878;60.672;2022-08-21T10:19:20;12.32;;;7.55;;
62523;SDS011;53689;56.878;60.672;2022-08-21T10:21:57;11.27;;;7.60;;
62523;SDS011;53689;56.878;60.672;2022-08-21T10:24:29;9.73;;;7.55;;
62523;SDS011;53689;56.878;60.672;2022-08-21T10:27:04;11.10;;;7.88;;
62523;SDS011;53689;56.878;60.672;2022-08-21T10:29:39;9.57;;;7.53;;
62523;SDS011;53689;56.878;60.672;2022-08-21T10:32:19;11.27;;;7.72;;
62523;SDS011;53689;56.878;60.672;2022-08-21T10:34:57;8.75;;;7.10;;
62523;SDS011;53689;56.878;60.672;2022-08-21T10:37:37;11.07;;;7.22;;
62523;SDS011;53689;56.878;60.672;2022-08-21T10:40:14;12.32;;;8.15;;
62523;SDS011;53689;56.878;60.672;2022-08-21T10:42:50;11.68;;;7.60;;
62523;SDS011;53689;56.878;60.672;2022-08-21T10:45:36;11.43;;;7.95;;
62523;SDS011;53689;56.878;60.672;2022-08-21T10:48:14;12.70;;;8.57;;
62523;SDS011;53689;56.878;60.672;2022-08-21T10:50:50;11.43;;;7.88;;
62523;SDS011;53689;56.878;60.672;2022-08-21T10:53:29;12.23;;;8.32;;
62523;SDS011;53689;56.878;60.672;2022-08-21T10:56:05;15.07;;;7.97;;
62523;SDS011;53689;56.878;60.672;2022-08-21T10:58:40;10.63;;;8.32;;
62523;SDS011;53689;56.878;60.672;2022-08-21T11:01:13;11.95;;;8.25;;
62523;SDS011;53689;56.878;60.672;2022-08-21T11:03:48;10.90;;;8.70;;
62523;SDS011;53689;56.878;60.672;2022-08-21T11:06:22;13.23;;;8.68;;
62523;SDS011;53689;56.878;60.672;2022-08-21T11:08:52;11.50;;;8.55;;
62523;SDS011;53689;56.878;60.672;2022-08-21T11:11:25;10.95;;;7.85;;
62523;SDS011;53689;56.878;60.672;2022-08-21T11:14:03;11.43;;;8.35;;
62523;SDS011;53689;56.878;60.672;2022-08-21T11:16:36;10.57;;;8.35;;
62523;SDS011;53689;56.878;60.672;2022-08-21T11:19:08;12.18;;;8.35;;
62523;SDS011;53689;56.878;60.672;2022-08-21T11:21:43;12.82;;;8.85;;
62523;SDS011;53689;56.878;60.672;2022-08-21T11:24:19;14.02;;;8.80;;
62523;SDS011;53689;56.878;60.672;2022-08-21T11:26:59;11.48;;;8.52;;
62523;SDS011;53689;56.878;60.672;2022-08-21T11:29:30;12.15;;;8.60;;
62523;SDS011;53689;56.878;60.672;2022-08-21T11:32:03;15.82;;;8.25;;
62523;SDS011;53689;56.878;60.672;2022-08-21T11:34:56;12.70;;;8.52;;
62523;SDS011;53689;56.878;60.672;2022-08-21T11:37:36;10.43;;;7.88;;
62523;SDS011;53689;56.878;60.672;2022-08-21T11:40:19;11.98;;;8.95;;
62523;SDS011;53689;56.878;60.672;2022-08-21T11:43:00;13.20;;;8.35;;
62523;SDS011;53689;56.878;60.672;2022-08-21T11:45:36;12.75;;;9.00;;
62523;SDS011;53689;56.878;60.672;2022-08-21T11:48:12;10.77;;;8.63;;
62523;SDS011;53689;56.878;60.672;2022-08-21T11:50:50;11.98;;;9.02;;
62523;SDS011;53689;56.878;60.672;2022-08-21T11:53:21;13.48;;;9.38;;
62523;SDS011;53689;56.878;60.672;2022-08-21T11:55:58;14.63;;;8.65;;
62523;SDS011;53689;56.878;60.672;2022-08-21T11:58:30;11.85;;;8.77;;
62523;SDS011;53689;56.878;60.672;2022-08-21T12:01:05;12.40;;;9.00;;
62523;SDS011;53689;56.878;60.672;2022-08-21T12:03:37;13.55;;;8.48;;
62523;SDS011;53689;56.878;60.672;2022-08-21T12:06:10;11.70;;;8.77;;
62523;SDS011;53689;56.878;60.672;2022-08-21T12:08:39;10.85;;;8.80;;
62523;SDS011;53689;56.878;60.672;2022-08-21T12:11:10;12.82;;;8.90;;
62523;SDS011;53689;56.878;60.672;2022-08-21T12:13:58;12.38;;;9.25;;
62523;SDS011;53689;56.878;60.672;2022-08-21T12:16:31;11.43;;;8.73;;
62523;SDS011;53689;56.878;60.672;2022-08-21T12:19:03;11.88;;;9.00;;
62523;SDS011;53689;56.878;60.672;2022-08-21T12:21:33;11.55;;;8.57;;
62523;SDS011;53689;56.878;60.672;2022-08-21T12:24:16;11.43;;;8.32;;
62523;SDS011;53689;56.878;60.672;2022-08-21T12:26:49;11.65;;;8.95;;
62523;SDS011;53689;56.878;60.672;2022-08-21T12:29:22;11.05;;;8.80;;
62523;SDS011;53689;56.878;60.672;2022-08-21T12:31:55;11.95;;;8.98;;
62523;SDS011;53689;56.878;60.672;2022-08-21T12:34:27;11.73;;;8.60;;
62523;SDS011;53689;56.878;60.672;2022-08-21T12:37:04;14.80;;;9.63;;
62523;SDS011;53689;56.878;60.672;2022-08-21T12:39:43;10.05;;;8.73;;
62523;SDS011;53689;56.878;60.672;2022-08-21T12:42:16;11.88;;;8.80;;
62523;SDS011;53689;56.878;60.672;2022-08-21T12:44:46;12.68;;;8.73;;
62523;SDS011;53689;56.878;60.672;2022-08-21T12:47:21;10.52;;;8.43;;
62523;SDS011;53689;56.878;60.672;2022-08-21T12:49:56;12.55;;;8.90;;
62523;SDS011;53689;56.878;60.672;2022-08-21T12:52:30;11.90;;;9.25;;
62523;SDS011;53689;56.878;60.672;2022-08-21T12:55:05;12.38;;;8.50;;
62523;SDS011;53689;56.878;60.672;2022-08-21T12:57:35;11.93;;;9.68;;
62523;SDS011;53689;56.878;60.672;2022-08-21T13:00:05;13.45;;;8.82;;
62523;SDS011;53689;56.878;60.672;2022-08-21T13:02:35;13.13;;;8.90;;
62523;SDS011;53689;56.878;60.672;2022-08-21T13:05:05;11.65;;;8.65;;
62523;SDS011;53689;56.878;60.672;2022-08-21T13:07:36;12.77;;;8.57;;
62523;SDS011;53689;56.878;60.672;2022-08-21T13:10:05;12.57;;;8.73;;
62523;SDS011;53689;56.878;60.672;2022-08-21T13:12:41;14.23;;;9.00;;
62523;SDS011;53689;56.878;60.672;2022-08-21T13:15:09;13.85;;;8.43;;
62523;SDS011;53689;56.878;60.672;2022-08-21T13:17:38;11.80;;;8.85;;
62523;SDS011;53689;56.878;60.672;2022-08-21T13:20:10;10.95;;;8.45;;
62523;SDS011;53689;56.878;60.672;2022-08-21T13:22:50;11.65;;;8.18;;
62523;SDS011;53689;56.878;60.672;2022-08-21T13:25:19;11.82;;;8.40;;
62523;SDS011;53689;56.878;60.672;2022-08-21T13:27:56;11.77;;;8.23;;
62523;SDS011;53689;56.878;60.672;2022-08-21T13:30:25;11.73;;;8.60;;
62523;SDS011;53689;56.878;60.672;2022-08-21T13:32:55;11.65;;;8.57;;
62523;SDS011;53689;56.878;60.672;2022-08-21T13:35:26;11.18;;;8.43;;
62523;SDS011;53689;56.878;60.672;2022-08-21T13:37:58;12.13;;;8.73;;
62523;SDS011;53689;56.878;60.672;2022-08-21T13:42:55;11.13;;;8.50;;
62523;SDS011;53689;56.878;60.672;2022-08-21T13:45:25;14.50;;;9.07;;
62523;SDS011;53689;56.878;60.672;2022-08-21T13:47:56;12.95;;;8.98;;
62523;SDS011;53689;56.878;60.672;2022-08-21T13:50:28;12.63;;;9.02;;
62523;SDS011;53689;56.878;60.672;2022-08-21T13:52:59;13.05;;;9.07;;
62523;SDS011;53689;56.878;60.672;2022-08-21T13:55:35;14.07;;;9.80;;
62523;SDS011;53689;56.878;60.672;2022-08-21T13:58:05;13.88;;;9.30;;
62523;SDS011;53689;56.878;60.672;2022-08-21T14:00:34;13.57;;;9.63;;
62523;SDS011;53689;56.878;60.672;2022-08-21T14:03:10;13.52;;;9.82;;
62523;SDS011;53689;56.878;60.672;2022-08-21T14:05:49;13.23;;;9.60;;
62523;SDS011;53689;56.878;60.672;2022-08-21T14:08:23;14.23;;;10.20;;
62523;SDS011;53689;56.878;60.672;2022-08-21T14:10:56;13.95;;;9.35;;
62523;SDS011;53689;56.878;60.672;2022-08-21T14:13:28;12.65;;;9.18;;
62523;SDS011;53689;56.878;60.672;2022-08-21T14:16:08;11.70;;;9.13;;
62523;SDS011;53689;56.878;60.672;2022-08-21T14:18:50;13.45;;;9.98;;
62523;SDS011;53689;56.878;60.672;2022-08-21T14:21:24;15.52;;;10.25;;
62523;SDS011;53689;56.878;60.672;2022-08-21T14:24:05;16.33;;;9.45;;
62523;SDS011;53689;56.878;60.672;2022-08-21T14:26:35;14.60;;;9.88;;
62523;SDS011;53689;56.878;60.672;2022-08-21T14:29:09;14.52;;;10.18;;
62523;SDS011;53689;56.878;60.672;2022-08-21T14:31:38;15.63;;;10.25;;
62523;SDS011;53689;56.878;60.672;2022-08-21T14:34:10;16.20;;;9.88;;
62523;SDS011;53689;56.878;60.672;2022-08-21T14:36:46;14.05;;;9.73;;
62523;SDS011;53689;56.878;60.672;2022-08-21T14:39:15;14.88;;;9.35;;
62523;SDS011;53689;56.878;60.672;2022-08-21T14:41:43;10.80;;;8.50;;
62523;SDS011;53689;56.878;60.672;2022-08-21T14:44:11;13.30;;;8.75;;
62523;SDS011;53689;56.878;60.672;2022-08-21T14:46:39;11.90;;;8.35;;
62523;SDS011;53689;56.878;60.672;2022-08-21T14:49:23;11.20;;;8.55;;
62523;SDS011;53689;56.878;60.672;2022-08-21T14:51:52;11.82;;;8.32;;
62523;SDS011;53689;56.878;60.672;2022-08-21T14:54:21;11.80;;;8.60;;
62523;SDS011;53689;56.878;60.672;2022-08-21T14:56:57;11.75;;;8.60;;